Time;durP1;ratioP1;P1;durP2;ratioP2;P2;SDS_P1;SDS_P2;PMS_P1;PMS_P2;Temp;Humidity;BMP_temperature;BMP_pressure;BME280_temperature;BME280_humidity;BME280_pressure;Samples;Min_cycle;Max_cycle;Signal;HPM_P1;HPM_P2
2022/04/11 00:02:12;;;;;;;;;;;;;;;;;;5115738;27;1392;-68
2022/04/11 00:04:37;;;;;;;;;;;;;;;;;;5115702;27;1010;-68
2022/04/11 00:07:02;;;;;;;;;;;;;;;;;;5134322;27;998;-68
2022/04/11 00:09:28;;;;;;;;;;;;;;;;;;5134109;27;769;-68
2022/04/11 00:11:53;;;;;;;;;;;;;;;;;;5116028;27;962;-68
2022/04/11 00:14:18;;;;;;;;;;;;;;;;;;5116007;27;1377;-68
2022/04/11 00:16:44;;;;;;;;;;;;;;;;;;5134213;27;1894;-68
2022/04/11 00:19:09;;;;;;;;;;;;;;;;;;5133777;27;838;-68
2022/04/11 00:21:35;;;;;;;;;;;;;;;;;;5115384;27;1202;-68
2022/04/11 00:24:00;;;;;;;;;;;;;;;;;;5115859;27;1218;-68
2022/04/11 00:26:25;;;;;;;;;;;;;;;;;;5115685;27;750;-68
2022/04/11 00:28:51;;;;;;;;;;;;;;;;;;5134297;27;958;-68
2022/04/11 00:31:16;;;;;;;;;;;;;;;;;;5133247;27;824;-68
2022/04/11 00:33:41;;;;;;;;;;;;;;;;;;5134663;27;1009;-68
2022/04/11 00:36:07;;;;;;;;;;;;;;;;;;5134241;27;923;-67
2022/04/11 00:38:32;;;;;;;;;;;;;;;;;;5134073;27;1951;-67
2022/04/11 00:40:57;;;;;;;;;;;;;;;;;;5112296;28;1108;-68
2022/04/11 00:43:34;;;;;;;;;;;;;;;;;;5113540;28;1065;-68
2022/04/11 00:46:00;;;;;;;;;;;;;;;;;;5113807;28;836;-67
2022/04/11 00:48:25;;;;;;;;;;;;;;;;;;5113379;28;817;-68
2022/04/11 00:50:53;;;;;;;;;;;;;;;;;;5113609;28;982;-68
2022/04/11 00:53:18;;;;;;;;;;;;;;;;;;5112031;28;1197;-68
2022/04/11 00:55:44;;;;;;;;;;;;;;;;;;5113079;28;1226;-68
2022/04/11 00:58:09;;;;;;;;;;;;;;;;;;5112742;28;1917;-68
2022/04/11 01:00:36;;;;;;;;;;;;;;;;;;5111453;28;1382;-68
2022/04/11 01:03:01;;;;;;;;;;;;;;;;;;5113021;28;1055;-67
2022/04/11 01:05:26;;;;;;;;;;;;;;;;;;5113380;28;876;-67
2022/04/11 01:07:52;;;;;;;;;;;;;;;;;;5111611;28;896;-68
2022/04/11 01:10:17;;;;;;;;;;;;;;;;;;5111087;28;1285;-67
2022/04/11 01:12:43;;;;;;;;;;;;;;;;;;5111055;28;1398;-68
2022/04/11 01:15:08;;;;;;;;;;;;;;;;;;5113091;28;808;-68
2022/04/11 01:17:34;;;;;;;;;;;;;;;;;;5112402;28;1894;-67
2022/04/11 01:20:05;;;;;;;;;;;;;;;;;;5111600;28;824;-67
2022/04/11 01:22:30;;;;;;;;;;;;;;;;;;5112597;28;797;-68
2022/04/11 01:24:56;;;;;;;;;;;;;;;;;;5111206;28;963;-68
2022/04/11 01:27:21;;;;;;;;;;;;;;;;;;5111568;28;958;-67
2022/04/11 01:29:47;;;;;;;;;;;;;;;;;;5112606;28;841;-68
2022/04/11 01:32:12;;;;;;;;;;;;;;;;;;5112553;28;907;-68
2022/04/11 01:34:37;;;;;;;;;;;;;;;;;;5112670;28;757;-68
2022/04/11 01:37:02;;;;;;;;;;;;;;;;;;5112345;28;1953;-67
2022/04/11 01:39:28;;;;;;;;;;;;;;;;;;5113561;27;1282;-68
2022/04/11 01:41:53;;;;;;;;;;;;;;;;;;5133079;27;793;-68
2022/04/11 01:44:19;;;;;;;;;;;;;;;;;;5132362;27;816;-68
2022/04/11 01:46:46;;;;;;;;;;;;;;;;;;5132812;27;863;-68
2022/04/11 01:49:11;;;;;;;;;;;;;;;;;;5132451;27;859;-68
2022/04/11 01:51:37;;;;;;;;;;;;;;;;;;5132670;27;745;-68
2022/04/11 01:54:02;;;;;;;;;;;;;;;;;;5132503;27;733;-68
2022/04/11 01:56:27;;;;;;;;;;;;;;;;;;5113134;27;1973;-68
2022/04/11 01:58:53;;;;;;;;;;;;;;;;;;5112808;27;1454;-68
2022/04/11 02:01:18;;;;;;;;;;;;;;;;;;5131889;27;1060;-68
2022/04/11 02:03:44;;;;;;;;;;;;;;;;;;5132943;27;808;-67
2022/04/11 02:06:09;;;;;;;;;;;;;;;;;;5114203;27;872;-67
2022/04/11 02:08:34;;;;;;;;;;;;;;;;;;5132842;27;824;-68
2022/04/11 02:11:00;;;;;;;;;;;;;;;;;;5133073;27;808;-68
2022/04/11 02:13:25;;;;;;;;;;;;;;;;;;5132416;27;907;-68
2022/04/11 02:15:50;;;;;;;;;;;;;;;;;;5114727;28;954;-68
2022/04/11 02:18:15;;;;;;;;;;;;;;;;;;5113919;27;1965;-68
2022/04/11 02:20:41;;;;;;;;;;;;;;;;;;5114392;28;832;-68
2022/04/11 02:23:06;;;;;;;;;;;;;;;;;;5132525;28;875;-68
2022/04/11 02:25:32;;;;;;;;;;;;;;;;;;5132459;28;952;-68
2022/04/11 02:27:58;;;;;;;;;;;;;;;;;;5113657;28;1377;-67
2022/04/11 02:30:24;;;;;;;;;;;;;;;;;;5132606;28;801;-68
2022/04/11 02:32:50;;;;;;;;;;;;;;;;;;5113777;28;1023;-67
2022/04/11 02:35:16;;;;;;;;;;;;;;;;;;5131860;28;979;-68
2022/04/11 02:37:42;;;;;;;;;;;;;;;;;;5113567;28;1936;-68
2022/04/11 02:40:07;;;;;;;;;;;;;;;;;;5113363;28;1234;-68
2022/04/11 02:42:33;;;;;;;;;;;;;;;;;;5114241;28;840;-67
2022/04/11 02:44:58;;;;;;;;;;;;;;;;;;5113423;28;1301;-68
2022/04/11 02:47:24;;;;;;;;;;;;;;;;;;5132754;28;1030;-67
2022/04/11 02:49:50;;;;;;;;;;;;;;;;;;5113642;28;856;-67
2022/04/11 02:52:15;;;;;;;;;;;;;;;;;;5131926;28;877;-68
2022/04/11 02:54:41;;;;;;;;;;;;;;;;;;5134912;27;865;-67
2022/04/11 02:57:07;;;;;;;;;;;;;;;;;;5136446;27;1913;-68
2022/04/11 02:59:33;;;;;;;;;;;;;;;;;;5136280;27;895;-67
2022/04/11 03:01:58;;;;;;;;;;;;;;;;;;5117436;27;903;-68
2022/04/11 03:04:24;;;;;;;;;;;;;;;;;;5135590;27;1224;-67
2022/04/11 03:06:49;;;;;;;;;;;;;;;;;;5117384;27;1365;-68
2022/04/11 03:09:15;;;;;;;;;;;;;;;;;;5136567;27;695;-68
2022/04/11 03:11:40;;;;;;;;;;;;;;;;;;5136025;27;927;-67
2022/04/11 03:14:05;;;;;;;;;;;;;;;;;;5136686;27;816;-68
2022/04/11 03:16:31;;;;;;;;;;;;;;;;;;5136405;27;1890;-67
2022/04/11 03:18:56;;;;;;;;;;;;;;;;;;5118242;27;780;-67
2022/04/11 03:21:22;;;;;;;;;;;;;;;;;;5136176;27;891;-67
2022/04/11 03:23:47;;;;;;;;;;;;;;;;;;5117375;27;1026;-68
2022/04/11 03:26:12;;;;;;;;;;;;;;;;;;5136653;27;840;-67
2022/04/11 03:28:37;;;;;;;;;;;;;;;;;;5136242;27;832;-68
2022/04/11 03:31:03;;;;;;;;;;;;;;;;;;5136607;27;934;-67
2022/04/11 03:33:28;;;;;;;;;;;;;;;;;;5116997;27;1286;-68
2022/04/11 03:35:53;;;;;;;;;;;;;;;;;;5136071;27;930;-67
2022/04/11 03:38:19;;;;;;;;;;;;;;;;;;5135835;27;1909;-68
2022/04/11 03:40:44;;;;;;;;;;;;;;;;;;5135730;27;1230;-67
2022/04/11 03:43:09;;;;;;;;;;;;;;;;;;5135663;27;742;-67
2022/04/11 03:45:35;;;;;;;;;;;;;;;;;;5135724;27;800;-68
2022/04/11 03:48:00;;;;;;;;;;;;;;;;;;5116055;27;1541;-68
2022/04/11 03:50:25;;;;;;;;;;;;;;;;;;5135398;27;990;-67
2022/04/11 03:52:50;;;;;;;;;;;;;;;;;;5098890;27;1446;-68
2022/04/11 03:55:16;;;;;;;;;;;;;;;;;;5134939;27;785;-68
2022/04/11 03:57:41;;;;;;;;;;;;;;;;;;5134802;27;1914;-68
2022/04/11 04:00:07;;;;;;;;;;;;;;;;;;5134659;27;914;-68
2022/04/11 04:02:32;;;;;;;;;;;;;;;;;;5134227;27;935;-68
2022/04/11 04:04:57;;;;;;;;;;;;;;;;;;5134120;27;813;-68
2022/04/11 04:07:22;;;;;;;;;;;;;;;;;;5134682;27;891;-67
2022/04/11 04:09:48;;;;;;;;;;;;;;;;;;5134307;27;875;-68
2022/04/11 04:12:13;;;;;;;;;;;;;;;;;;5134535;27;847;-68
2022/04/11 04:14:39;;;;;;;;;;;;;;;;;;5134645;27;812;-67
2022/04/11 04:17:04;;;;;;;;;;;;;;;;;;5134065;27;1902;-67
2022/04/11 04:19:29;;;;;;;;;;;;;;;;;;5115402;27;730;-67
2022/04/11 04:21:55;;;;;;;;;;;;;;;;;;5134640;27;863;-67
2022/04/11 04:24:22;;;;;;;;;;;;;;;;;;5135614;27;1233;-67
2022/04/11 04:26:48;;;;;;;;;;;;;;;;;;5135540;27;979;-68
2022/04/11 04:29:15;;;;;;;;;;;;;;;;;;5136347;27;1185;-67
2022/04/11 04:31:40;;;;;;;;;;;;;;;;;;5135917;27;820;-67
2022/04/11 04:34:06;;;;;;;;;;;;;;;;;;5117656;27;982;-67
2022/04/11 04:36:31;;;;;;;;;;;;;;;;;;5135888;27;887;-67
2022/04/11 04:38:56;;;;;;;;;;;;;;;;;;5136074;27;1987;-67
2022/04/11 04:41:21;;;;;;;;;;;;;;;;;;5117153;27;1196;-67
2022/04/11 04:43:46;;;;;;;;;;;;;;;;;;5135847;27;820;-67
2022/04/11 04:46:12;;;;;;;;;;;;;;;;;;5136081;27;938;-67
2022/04/11 04:48:37;;;;;;;;;;;;;;;;;;5116880;27;1191;-67
2022/04/11 04:51:02;;;;;;;;;;;;;;;;;;5141931;27;1103;-67
2022/04/11 04:53:27;;;;;;;;;;;;;;;;;;5157016;27;808;-67
2022/04/11 04:55:53;;;;;;;;;;;;;;;;;;5138490;27;884;-68
2022/04/11 04:58:18;;;;;;;;;;;;;;;;;;5156818;27;1972;-67
2022/04/11 05:00:43;;;;;;;;;;;;;;;;;;5138173;27;1191;-66
2022/04/11 05:03:09;;;;;;;;;;;;;;;;;;5137973;27;1246;-67
2022/04/11 05:05:35;;;;;;;;;;;;;;;;;;5138196;27;848;-68
2022/04/11 05:08:00;;;;;;;;;;;;;;;;;;5156597;27;899;-67
2022/04/11 05:10:25;;;;;;;;;;;;;;;;;;5156542;27;1076;-67
2022/04/11 05:12:51;;;;;;;;;;;;;;;;;;5137942;27;951;-67
2022/04/11 05:15:16;;;;;;;;;;;;;;;;;;5136666;27;803;-67
2022/04/11 05:17:41;;;;;;;;;;;;;;;;;;5153175;27;1947;-67
2022/04/11 05:20:08;;;;;;;;;;;;;;;;;;5154479;27;936;-67
2022/04/11 05:22:34;;;;;;;;;;;;;;;;;;5154061;27;832;-68
2022/04/11 05:24:59;;;;;;;;;;;;;;;;;;5153506;27;910;-68
2022/04/11 05:27:25;;;;;;;;;;;;;;;;;;5153833;27;903;-66
2022/04/11 05:29:50;;;;;;;;;;;;;;;;;;5117656;27;1332;-67
2022/04/11 05:32:16;;;;;;;;;;;;;;;;;;5134982;27;1246;-67
2022/04/11 05:34:41;;;;;;;;;;;;;;;;;;5134757;27;1203;-67
2022/04/11 05:37:06;;;;;;;;;;;;;;;;;;5134644;27;1897;-67
2022/04/11 05:39:32;;;;;;;;;;;;;;;;;;5153139;27;807;-67
2022/04/11 05:41:57;;;;;;;;;;;;;;;;;;5153002;27;1383;-67
2022/04/11 05:44:22;;;;;;;;;;;;;;;;;;5153330;27;974;-67
2022/04/11 05:46:52;;;;;;;;;;;;;;;;;;5152987;27;994;-67
2022/04/11 05:49:18;;;;;;;;;;;;;;;;;;5153543;27;859;-67
2022/04/11 05:51:44;;;;;;;;;;;;;;;;;;5152837;27;824;-67
2022/04/11 05:54:09;;;;;;;;;;;;;;;;;;5153195;27;828;-67
2022/04/11 05:56:34;;;;;;;;;;;;;;;;;;5152622;27;990;-67
2022/04/11 05:59:03;;;;;;;;;;;;;;;;;;5152787;27;1905;-67
2022/04/11 06:01:29;;;;;;;;;;;;;;;;;;5152680;27;861;-67
2022/04/11 06:03:54;;;;;;;;;;;;;;;;;;5152861;27;772;-67
2022/04/11 06:06:20;;;;;;;;;;;;;;;;;;5117247;27;1300;-67
2022/04/11 06:08:45;;;;;;;;;;;;;;;;;;5116853;27;1199;-67
2022/04/11 06:11:11;;;;;;;;;;;;;;;;;;5134303;27;1314;-67
2022/04/11 06:13:36;;;;;;;;;;;;;;;;;;5152382;27;939;-67
2022/04/11 06:16:04;;;;;;;;;;;;;;;;;;5152508;27;840;-67
2022/04/11 06:18:29;;;;;;;;;;;;;;;;;;5133243;27;1914;-67
2022/04/11 06:20:54;;;;;;;;;;;;;;;;;;5151576;27;942;-67
2022/04/11 06:23:20;;;;;;;;;;;;;;;;;;5134117;27;931;-67
2022/04/11 06:25:45;;;;;;;;;;;;;;;;;;5133847;27;895;-67
2022/04/11 06:28:10;;;;;;;;;;;;;;;;;;5152519;27;1150;-67
2022/04/11 06:30:36;;;;;;;;;;;;;;;;;;5156593;27;998;-67
2022/04/11 06:33:01;;;;;;;;;;;;;;;;;;5156967;27;900;-68
2022/04/11 06:35:26;;;;;;;;;;;;;;;;;;5157636;27;1030;-67
2022/04/11 06:37:51;;;;;;;;;;;;;;;;;;5156621;27;1901;-67
2022/04/11 06:40:17;;;;;;;;;;;;;;;;;;5156610;27;1054;-67
2022/04/11 06:42:42;;;;;;;;;;;;;;;;;;5156437;27;1058;-67
2022/04/11 06:45:08;;;;;;;;;;;;;;;;;;5156650;27;1025;-67
2022/04/11 06:47:34;;;;;;;;;;;;;;;;;;5156907;27;816;-67
2022/04/11 06:49:59;;;;;;;;;;;;;;;;;;5156909;27;792;-67
2022/04/11 06:52:24;;;;;;;;;;;;;;;;;;5157043;27;812;-67
2022/04/11 06:54:49;;;;;;;;;;;;;;;;;;5155739;27;951;-64
2022/04/11 06:57:15;;;;;;;;;;;;;;;;;;5155894;27;1898;-64
2022/04/11 06:59:40;;;;;;;;;;;;;;;;;;5137293;27;912;-64
2022/04/11 07:02:06;;;;;;;;;;;;;;;;;;5137103;27;1160;-64
2022/04/11 07:04:32;;;;;;;;;;;;;;;;;;5156008;27;839;-64
2022/04/11 07:06:57;;;;;;;;;;;;;;;;;;5154856;27;1217;-64
2022/04/11 07:09:22;;;;;;;;;;;;;;;;;;5137378;27;1346;-64
2022/04/11 07:11:47;;;;;;;;;;;;;;;;;;5155648;27;910;-64
2022/04/11 07:14:13;;;;;;;;;;;;;;;;;;5137271;27;1176;-64
2022/04/11 07:16:39;;;;;;;;;;;;;;;;;;5156029;27;761;-64
2022/04/11 07:19:04;;;;;;;;;;;;;;;;;;5137292;27;1901;-64
2022/04/11 07:21:29;;;;;;;;;;;;;;;;;;5137691;27;781;-64
2022/04/11 07:23:55;;;;;;;;;;;;;;;;;;5155524;27;855;-63
2022/04/11 07:26:20;;;;;;;;;;;;;;;;;;5155814;27;761;-64
2022/04/11 07:28:47;;;;;;;;;;;;;;;;;;5155111;27;949;-64
2022/04/11 07:31:12;;;;;;;;;;;;;;;;;;5137488;27;860;-64
2022/04/11 07:33:37;;;;;;;;;;;;;;;;;;5155285;27;985;-64
2022/04/11 07:36:03;;;;;;;;;;;;;;;;;;5155059;27;836;-64
2022/04/11 07:38:29;;;;;;;;;;;;;;;;;;5155421;27;1894;-64
2022/04/11 07:40:54;;;;;;;;;;;;;;;;;;5135911;27;1166;-64
2022/04/11 07:43:19;;;;;;;;;;;;;;;;;;5119708;27;1362;-64
2022/04/11 07:45:45;;;;;;;;;;;;;;;;;;5136037;27;1288;-64
2022/04/11 07:48:10;;;;;;;;;;;;;;;;;;5135470;27;1166;-64
2022/04/11 07:50:35;;;;;;;;;;;;;;;;;;5153669;27;793;-64
2022/04/11 07:53:01;;;;;;;;;;;;;;;;;;5135933;27;836;-64
2022/04/11 07:55:26;;;;;;;;;;;;;;;;;;5154861;27;958;-64
2022/04/11 07:57:53;;;;;;;;;;;;;;;;;;5135998;27;1909;-64
2022/04/11 08:00:19;;;;;;;;;;;;;;;;;;5154650;27;903;-64
2022/04/11 08:02:44;;;;;;;;;;;;;;;;;;5153341;27;812;-64
2022/04/11 08:05:10;;;;;;;;;;;;;;;;;;5153690;27;828;-64
2022/04/11 08:07:35;;;;;;;;;;;;;;;;;;5154755;27;820;-64
2022/04/11 08:10:01;;;;;;;;;;;;;;;;;;5154111;27;797;-64
2022/04/11 08:12:26;;;;;;;;;;;;;;;;;;5154885;27;832;-64
2022/04/11 08:14:52;;;;;;;;;;;;;;;;;;5153980;27;973;-64
2022/04/11 08:17:17;;;;;;;;;;;;;;;;;;5135509;27;1893;-64
2022/04/11 08:19:42;;;;;;;;;;;;;;;;;;5154363;27;958;-64
2022/04/11 08:22:07;;;;;;;;;;;;;;;;;;5135285;27;836;-64
2022/04/11 08:24:33;;;;;;;;;;;;;;;;;;5118248;27;1193;-64
2022/04/11 08:26:58;;;;;;;;;;;;;;;;;;5153542;27;982;-64
2022/04/11 08:29:24;;;;;;;;;;;;;;;;;;5135637;27;1257;-64
2022/04/11 08:31:50;;;;;;;;;;;;;;;;;;5154401;27;717;-64
2022/04/11 08:34:15;;;;;;;;;;;;;;;;;;5154659;27;985;-64
2022/04/11 08:36:40;;;;;;;;;;;;;;;;;;5154379;27;867;-67
2022/04/11 08:39:06;;;;;;;;;;;;;;;;;;5153667;27;1906;-67
2022/04/11 08:41:33;;;;;;;;;;;;;;;;;;5135381;27;2433;-67
2022/04/11 08:43:59;;;;;;;;;;;;;;;;;;5135114;27;1358;-67
2022/04/11 08:46:25;;;;;;;;;;;;;;;;;;5153433;27;1264;-67
2022/04/11 08:48:51;;;;;;;;;;;;;;;;;;5134961;27;1602;-67
2022/04/11 08:51:16;;;;;;;;;;;;;;;;;;5153432;27;888;-68
2022/04/11 08:53:42;;;;;;;;;;;;;;;;;;5135208;27;1354;-67
2022/04/11 08:56:07;;;;;;;;;;;;;;;;;;5153254;27;892;-67
2022/04/11 08:58:33;;;;;;;;;;;;;;;;;;5153734;27;1911;-68
2022/04/11 09:00:58;;;;;;;;;;;;;;;;;;5134713;27;1332;-67
2022/04/11 09:03:23;;;;;;;;;;;;;;;;;;5154340;27;847;-67
2022/04/11 09:05:49;;;;;;;;;;;;;;;;;;5153873;27;906;-67
2022/04/11 09:08:14;;;;;;;;;;;;;;;;;;5153765;27;871;-67
2022/04/11 09:10:41;;;;;;;;;;;;;;;;;;5135845;27;1233;-67
2022/04/11 09:13:07;;;;;;;;;;;;;;;;;;5154047;27;990;-66
2022/04/11 09:15:39;;;;;;;;;;;;;;;;;;5154559;27;989;-67
2022/04/11 09:18:04;;;;;;;;;;;;;;;;;;5134535;27;2409;-66
2022/04/11 09:20:30;;;;;;;;;;;;;;;;;;5135379;27;1102;-67
2022/04/11 09:22:55;;;;;;;;;;;;;;;;;;5134927;27;738;-67
2022/04/11 09:25:22;;;;;;;;;;;;;;;;;;5135037;27;1623;-67
2022/04/11 09:27:48;;;;;;;;;;;;;;;;;;5134787;27;797;-67
2022/04/11 09:30:20;;;;;;;;;;;;;;;;;;5153438;27;859;-67
2022/04/11 09:33:12;;;;;;;;;;;;;;;;;;5153560;27;1249;-67
2022/04/11 09:35:43;;;;;;;;;;;;;;;;;;5148229;27;1634;-67
2022/04/11 09:38:18;;;;;;;;;;;;;;;;;;5152907;27;1968;-67
2022/04/11 09:40:50;;;;;;;;;;;;;;;;;;5134635;27;1072;-67
2022/04/11 09:43:16;;;;;;;;;;;;;;;;;;5153173;27;691;-67
2022/04/11 09:45:54;;;;;;;;;;;;;;;;;;5153152;27;896;-67
2022/04/11 09:48:21;;;;;;;;;;;;;;;;;;5134437;27;1336;-67
2022/04/11 09:50:50;;;;;;;;;;;;;;;;;;5153167;27;827;-67
2022/04/11 09:53:15;;;;;;;;;;;;;;;;;;5134362;27;1336;-67
2022/04/11 09:55:42;;;;;;;;;;;;;;;;;;5153336;27;780;-67
2022/04/11 09:58:07;;;;;;;;;;;;;;;;;;5134080;27;1910;-67
2022/04/11 10:00:34;;;;;;;;;;;;;;;;;;5153676;27;922;-67
2022/04/11 10:03:00;;;;;;;;;;;;;;;;;;5152763;27;835;-67
2022/04/11 10:05:26;;;;;;;;;;;;;;;;;;5153145;27;864;-67
2022/04/11 10:07:55;;;;;;;;;;;;;;;;;;5134457;27;1150;-67
2022/04/11 10:10:21;;;;;;;;;;;;;;;;;;5153014;27;859;-67
2022/04/11 10:12:47;;;;;;;;;;;;;;;;;;5152559;27;840;-67
2022/04/11 10:15:12;;;;;;;;;;;;;;;;;;5152810;27;871;-67
2022/04/11 10:17:37;;;;;;;;;;;;;;;;;;5152862;27;1983;-67
2022/04/11 10:20:03;;;;;;;;;;;;;;;;;;5152125;27;856;-67
2022/04/11 10:22:33;;;;;;;;;;;;;;;;;;5152391;27;1291;-66
2022/04/11 10:25:04;;;;;;;;;;;;;;;;;;5152573;27;812;-66
2022/04/11 10:27:29;;;;;;;;;;;;;;;;;;5133556;27;1229;-67
2022/04/11 10:29:55;;;;;;;;;;;;;;;;;;5152112;27;903;-66
2022/04/11 10:32:27;;;;;;;;;;;;;;;;;;5152245;27;895;-68
2022/04/11 10:34:54;;;;;;;;;;;;;;;;;;5125362;27;1186;-66
2022/04/11 10:37:21;;;;;;;;;;;;;;;;;;5131489;27;1906;-67
2022/04/11 10:39:47;;;;;;;;;;;;;;;;;;5131713;28;943;-67
2022/04/11 10:42:16;;;;;;;;;;;;;;;;;;5131065;28;1300;-67
2022/04/11 10:44:49;;;;;;;;;;;;;;;;;;5131704;28;1010;-66
2022/04/11 10:47:15;;;;;;;;;;;;;;;;;;5112953;28;1592;-66
2022/04/11 10:49:56;;;;;;;;;;;;;;;;;;5132351;27;1111;-67
2022/04/11 10:52:31;;;;;;;;;;;;;;;;;;5132350;28;844;-67
2022/04/11 10:55:17;;;;;;;;;;;;;;;;;;5131944;28;890;-67
2022/04/11 10:57:44;;;;;;;;;;;;;;;;;;5112561;28;1929;-66
2022/04/11 11:00:10;;;;;;;;;;;;;;;;;;5131819;28;911;-65
2022/04/11 11:02:52;;;;;;;;;;;;;;;;;;5132594;28;835;-66
2022/04/11 11:05:24;;;;;;;;;;;;;;;;;;5132141;28;907;-65
2022/04/11 11:07:49;;;;;;;;;;;;;;;;;;5113456;28;1239;-64
2022/04/11 11:10:25;;;;;;;;;;;;;;;;;;5132211;28;911;-64
2022/04/11 11:12:51;;;;;;;;;;;;;;;;;;5113522;28;1235;-66
2022/04/11 11:15:27;;;;;;;;;;;;;;;;;;5133995;27;906;-65
2022/04/11 11:17:59;;;;;;;;;;;;;;;;;;5135599;27;1948;-65
2022/04/11 11:20:31;;;;;;;;;;;;;;;;;;5135466;27;860;-64
2022/04/11 11:23:18;;;;;;;;;;;;;;;;;;5135803;27;824;-63
2022/04/11 11:25:43;;;;;;;;;;;;;;;;;;5135662;27;880;-66
2022/04/11 11:28:11;;;;;;;;;;;;;;;;;;5135469;27;785;-64
2022/04/11 11:30:36;;;;;;;;;;;;;;;;;;5134826;27;911;-67
2022/04/11 11:33:02;;;;;;;;;;;;;;;;;;5135375;27;982;-67
2022/04/11 11:35:28;;;;;;;;;;;;;;;;;;5117439;27;1725;-66
2022/04/11 11:38:03;;;;;;;;;;;;;;;;;;5136273;27;1955;-65
2022/04/11 11:40:29;;;;;;;;;;;;;;;;;;5135069;27;1190;-66
2022/04/11 11:42:56;;;;;;;;;;;;;;;;;;5117099;27;1327;-67
2022/04/11 11:45:27;;;;;;;;;;;;;;;;;;5117709;27;1358;-67
2022/04/11 11:47:53;;;;;;;;;;;;;;;;;;5135687;27;801;-67
2022/04/11 11:50:18;;;;;;;;;;;;;;;;;;5117838;27;1025;-67
2022/04/11 11:52:54;;;;;;;;;;;;;;;;;;5136293;27;785;-68
2022/04/11 11:55:20;;;;;;;;;;;;;;;;;;5135913;27;1006;-67
2022/04/11 11:57:45;;;;;;;;;;;;;;;;;;5134205;27;1980;-68
2022/04/11 12:00:11;;;;;;;;;;;;;;;;;;5133354;27;911;-67
2022/04/11 12:05:20;;;;;;;;;;;;;;;;;;5134835;27;740;-68
2022/04/11 12:07:50;;;;;;;;;;;;;;;;;;5134319;27;793;-67
2022/04/11 12:10:15;;;;;;;;;;;;;;;;;;5115410;27;1198;-66
2022/04/11 12:12:42;;;;;;;;;;;;;;;;;;5134233;27;801;-67
2022/04/11 12:15:08;;;;;;;;;;;;;;;;;;5115188;27;1111;-67
2022/04/11 12:17:34;;;;;;;;;;;;;;;;;;5133831;27;1969;-66
2022/04/11 12:20:10;;;;;;;;;;;;;;;;;;5133726;27;844;-67
2022/04/11 12:22:35;;;;;;;;;;;;;;;;;;5133762;27;761;-66
2022/04/11 12:25:19;;;;;;;;;;;;;;;;;;5133626;27;880;-68
2022/04/11 12:27:45;;;;;;;;;;;;;;;;;;5133086;27;907;-67
2022/04/11 12:30:13;;;;;;;;;;;;;;;;;;5115386;27;987;-67
2022/04/11 12:32:41;;;;;;;;;;;;;;;;;;5133852;27;987;-67
2022/04/11 12:35:13;;;;;;;;;;;;;;;;;;5133612;27;903;-67
2022/04/11 12:37:48;;;;;;;;;;;;;;;;;;5133601;27;1893;-67
2022/04/11 12:40:14;;;;;;;;;;;;;;;;;;5114794;27;1409;-67
2022/04/11 12:42:39;;;;;;;;;;;;;;;;;;5133424;27;1253;-67
2022/04/11 12:45:06;;;;;;;;;;;;;;;;;;5133268;27;773;-67
2022/04/11 12:47:32;;;;;;;;;;;;;;;;;;5133716;27;832;-67
2022/04/11 12:49:57;;;;;;;;;;;;;;;;;;5115401;27;832;-67
2022/04/11 12:52:25;;;;;;;;;;;;;;;;;;5133633;27;768;-66
2022/04/11 12:54:51;;;;;;;;;;;;;;;;;;5133743;27;907;-67
2022/04/11 12:57:21;;;;;;;;;;;;;;;;;;5114902;27;1974;-67
2022/04/11 12:59:46;;;;;;;;;;;;;;;;;;5133821;27;891;-66
2022/04/11 13:02:19;;;;;;;;;;;;;;;;;;5114776;27;833;-66
2022/04/11 13:04:49;;;;;;;;;;;;;;;;;;5133382;27;965;-66
2022/04/11 13:07:15;;;;;;;;;;;;;;;;;;5114874;27;1212;-66
2022/04/11 13:09:40;;;;;;;;;;;;;;;;;;5133261;27;1013;-67
2022/04/11 13:12:09;;;;;;;;;;;;;;;;;;5097640;27;1358;-66
2022/04/11 13:14:35;;;;;;;;;;;;;;;;;;5114804;27;840;-67
2022/04/11 13:19:44;;;;;;;;;;;;;;;;;;5133332;27;780;-67
2022/04/11 13:22:10;;;;;;;;;;;;;;;;;;5115085;27;852;-71
2022/04/11 13:24:35;;;;;;;;;;;;;;;;;;5133405;27;1056;-69
2022/04/11 13:27:00;;;;;;;;;;;;;;;;;;5133346;27;998;-69
2022/04/11 13:29:26;;;;;;;;;;;;;;;;;;5133846;27;824;-66
2022/04/11 13:31:51;;;;;;;;;;;;;;;;;;5133327;27;864;-68
2022/04/11 13:34:16;;;;;;;;;;;;;;;;;;5114778;27;1175;-69
2022/04/11 13:36:42;;;;;;;;;;;;;;;;;;5114877;27;916;-69
2022/04/11 13:39:07;;;;;;;;;;;;;;;;;;5113744;27;1902;-69
2022/04/11 13:41:33;;;;;;;;;;;;;;;;;;5131555;27;1134;-69
2022/04/11 13:43:59;;;;;;;;;;;;;;;;;;5131687;27;876;-70
2022/04/11 13:46:24;;;;;;;;;;;;;;;;;;5114911;27;881;-67
2022/04/11 13:48:50;;;;;;;;;;;;;;;;;;5135071;27;856;-68
2022/04/11 13:51:15;;;;;;;;;;;;;;;;;;5135028;27;896;-69
2022/04/11 13:53:41;;;;;;;;;;;;;;;;;;5134836;27;941;-69
2022/04/11 13:56:06;;;;;;;;;;;;;;;;;;5135642;27;766;-68
2022/04/11 13:58:32;;;;;;;;;;;;;;;;;;5121255;27;1906;-68
2022/04/11 14:00:57;;;;;;;;;;;;;;;;;;5141224;27;958;-69
2022/04/11 14:03:23;;;;;;;;;;;;;;;;;;5120875;27;1353;-69
2022/04/11 14:05:48;;;;;;;;;;;;;;;;;;5135634;27;883;-70
2022/04/11 14:08:13;;;;;;;;;;;;;;;;;;5136213;27;864;-70
2022/04/11 14:10:39;;;;;;;;;;;;;;;;;;5118604;27;931;-69
2022/04/11 14:13:05;;;;;;;;;;;;;;;;;;5135854;27;1340;-68
2022/04/11 14:15:30;;;;;;;;;;;;;;;;;;5134981;27;899;-67
2022/04/11 14:17:56;;;;;;;;;;;;;;;;;;5140261;27;1959;-67
2022/04/11 14:20:21;;;;;;;;;;;;;;;;;;5119900;27;2509;-68
2022/04/11 14:22:47;;;;;;;;;;;;;;;;;;5135864;27;840;-67
2022/04/11 14:25:12;;;;;;;;;;;;;;;;;;5134558;27;836;-68
2022/04/11 14:27:37;;;;;;;;;;;;;;;;;;5133154;27;776;-64
2022/04/11 14:30:03;;;;;;;;;;;;;;;;;;5113922;28;900;-64
2022/04/11 14:32:29;;;;;;;;;;;;;;;;;;5131479;28;866;-65
2022/04/11 14:34:54;;;;;;;;;;;;;;;;;;5131627;28;863;-64
2022/04/11 14:37:19;;;;;;;;;;;;;;;;;;5131696;28;1961;-63
2022/04/11 14:39:45;;;;;;;;;;;;;;;;;;5131896;28;823;-68
2022/04/11 14:42:11;;;;;;;;;;;;;;;;;;5113757;28;1096;-70
2022/04/11 14:44:37;;;;;;;;;;;;;;;;;;5132871;28;868;-69
2022/04/11 14:47:02;;;;;;;;;;;;;;;;;;5140668;27;1052;-66
2022/04/11 14:49:28;;;;;;;;;;;;;;;;;;5154063;27;887;-67
2022/04/11 14:51:53;;;;;;;;;;;;;;;;;;5138733;27;938;-66
2022/04/11 14:54:18;;;;;;;;;;;;;;;;;;5157461;27;879;-66
2022/04/11 14:56:44;;;;;;;;;;;;;;;;;;5157696;27;875;-66
2022/04/11 14:59:09;;;;;;;;;;;;;;;;;;5156884;27;1902;-66
2022/04/11 15:01:34;;;;;;;;;;;;;;;;;;5157114;27;919;-66
2022/04/11 15:04:00;;;;;;;;;;;;;;;;;;5121201;27;825;-66
2022/04/11 15:06:26;;;;;;;;;;;;;;;;;;5157706;27;816;-66
2022/04/11 15:08:51;;;;;;;;;;;;;;;;;;5157039;27;839;-66
2022/04/11 15:11:16;;;;;;;;;;;;;;;;;;5157028;27;852;-66
2022/04/11 15:13:43;;;;;;;;;;;;;;;;;;5157001;27;851;-67
2022/04/11 15:16:09;;;;;;;;;;;;;;;;;;5156726;27;842;-67
2022/04/11 15:18:34;;;;;;;;;;;;;;;;;;5156993;27;1901;-68
2022/04/11 15:21:01;;;;;;;;;;;;;;;;;;5156047;27;991;-67
2022/04/11 15:23:26;;;;;;;;;;;;;;;;;;5156731;27;895;-66
2022/04/11 15:25:52;;;;;;;;;;;;;;;;;;5156998;27;773;-66
2022/04/11 15:28:18;;;;;;;;;;;;;;;;;;5137700;27;1190;-65
2022/04/11 15:30:43;;;;;;;;;;;;;;;;;;5156160;27;831;-67
2022/04/11 15:33:09;;;;;;;;;;;;;;;;;;5137507;27;1141;-67
2022/04/11 15:35:34;;;;;;;;;;;;;;;;;;5156757;27;832;-67
2022/04/11 15:38:00;;;;;;;;;;;;;;;;;;5156677;27;1960;-67
2022/04/11 15:40:25;;;;;;;;;;;;;;;;;;5155732;27;1372;-66
2022/04/11 15:42:50;;;;;;;;;;;;;;;;;;5153570;27;1212;-68
2022/04/11 15:45:16;;;;;;;;;;;;;;;;;;5150539;27;1340;-67
2022/04/11 15:47:41;;;;;;;;;;;;;;;;;;5136926;27;1217;-67
2022/04/11 15:50:07;;;;;;;;;;;;;;;;;;5136923;27;847;-67
2022/04/11 15:52:33;;;;;;;;;;;;;;;;;;5136776;27;845;-67
2022/04/11 15:54:58;;;;;;;;;;;;;;;;;;5136726;27;1158;-67
2022/04/11 15:57:23;;;;;;;;;;;;;;;;;;5155876;27;1980;-67
2022/04/11 15:59:51;;;;;;;;;;;;;;;;;;5155352;27;563;-67
2022/04/11 16:02:16;;;;;;;;;;;;;;;;;;5137834;27;1304;-69
2022/04/11 16:04:41;;;;;;;;;;;;;;;;;;5136144;27;919;-67
2022/04/11 16:07:07;;;;;;;;;;;;;;;;;;5154840;27;859;-68
2022/04/11 16:09:32;;;;;;;;;;;;;;;;;;5156116;27;835;-67
2022/04/11 16:11:57;;;;;;;;;;;;;;;;;;5154969;27;1061;-67
2022/04/11 16:14:22;;;;;;;;;;;;;;;;;;5155415;27;892;-67
2022/04/11 16:16:48;;;;;;;;;;;;;;;;;;5154828;27;871;-67
2022/04/11 16:19:13;;;;;;;;;;;;;;;;;;5155087;27;1969;-67
2022/04/11 16:21:38;;;;;;;;;;;;;;;;;;5136781;27;884;-67
2022/04/11 16:24:04;;;;;;;;;;;;;;;;;;5154774;27;1084;-68
2022/04/11 16:26:30;;;;;;;;;;;;;;;;;;5155843;27;824;-67
2022/04/11 16:28:56;;;;;;;;;;;;;;;;;;5136402;27;824;-68
2022/04/11 16:31:22;;;;;;;;;;;;;;;;;;5155325;27;836;-67
2022/04/11 16:33:47;;;;;;;;;;;;;;;;;;5155611;27;986;-67
2022/04/11 16:36:12;;;;;;;;;;;;;;;;;;5154900;27;957;-67
2022/04/11 16:38:38;;;;;;;;;;;;;;;;;;5156196;27;1889;-67
2022/04/11 16:41:03;;;;;;;;;;;;;;;;;;5119290;27;1286;-67
2022/04/11 16:43:29;;;;;;;;;;;;;;;;;;5154529;27;1041;-67
2022/04/11 16:45:54;;;;;;;;;;;;;;;;;;5154767;27;949;-68
2022/04/11 16:48:19;;;;;;;;;;;;;;;;;;5155045;27;883;-67
2022/04/11 16:50:45;;;;;;;;;;;;;;;;;;5155316;27;898;-67
2022/04/11 16:53:10;;;;;;;;;;;;;;;;;;5154162;27;852;-67
2022/04/11 16:55:35;;;;;;;;;;;;;;;;;;5155136;27;875;-67
2022/04/11 16:58:01;;;;;;;;;;;;;;;;;;5154456;27;2043;-66
2022/04/11 17:00:27;;;;;;;;;;;;;;;;;;5154819;27;844;-67
2022/04/11 17:02:52;;;;;;;;;;;;;;;;;;5154703;27;879;-67
2022/04/11 17:05:18;;;;;;;;;;;;;;;;;;5135474;27;1294;-67
2022/04/11 17:07:43;;;;;;;;;;;;;;;;;;5135730;27;1070;-67
2022/04/11 17:10:08;;;;;;;;;;;;;;;;;;5135152;27;785;-67
2022/04/11 17:12:34;;;;;;;;;;;;;;;;;;5153543;27;812;-67